Time;durP1;ratioP1;P1;durP2;ratioP2;P2;SDS_P1;SDS_P2;PMS_P1;PMS_P2;Temp;Humidity;BMP_temperature;BMP_pressure;BME280_temperature;BME280_humidity;BME280_pressure;Samples;Min_cycle;Max_cycle;Signal;HPM_P1;HPM_P2
2021/03/14 00:00:55;;;;;;;3.08;1.80;;;;;;;6.86;59.57;98419.95;147787;1144;104531;-77
2021/03/14 00:03:59;;;;;;;3.17;1.80;;;;;;;6.83;59.91;98425.59;147832;1144;104472;-77
2021/03/14 00:07:03;;;;;;;4.50;2.02;;;;;;;6.79;59.60;98429.59;147829;1143;104470;-77
2021/03/14 00:10:08;;;;;;;3.70;1.95;;;;;;;6.71;59.98;98430.45;147803;1144;104631;-78
2021/03/14 00:13:11;;;;;;;2.37;1.40;;;;;;;6.66;60.68;98432.82;147759;1143;104610;-80
2021/03/14 00:16:14;;;;;;;3.47;1.87;;;;;;;6.60;60.73;98428.19;147642;1144;104558;-76
2021/03/14 00:19:18;;;;;;;3.62;1.50;;;;;;;6.54;61.12;98437.64;147701;1144;104691;-76
2021/03/14 00:22:21;;;;;;;3.27;1.60;;;;;;;6.48;59.87;98448.94;147819;1143;104563;-74
2021/03/14 00:25:24;;;;;;;12.25;5.60;;;;;;;6.43;59.91;98446.00;147826;1144;104473;-74
2021/03/14 00:28:27;;;;;;;9.55;4.20;;;;;;;6.36;60.61;98450.31;147793;1143;104473;-73
2021/03/14 00:31:31;;;;;;;5.33;2.52;;;;;;;6.29;61.10;98451.00;147903;1144;104522;-74
2021/03/14 00:34:34;;;;;;;4.78;2.45;;;;;;;6.22;60.62;98452.67;147865;1144;104470;-75
2021/03/14 00:37:37;;;;;;;5.05;2.27;;;;;;;6.16;60.34;98456.00;147823;1143;104479;-74
2021/03/14 00:40:40;;;;;;;6.55;2.45;;;;;;;6.13;61.43;98458.16;147857;1144;104480;-74
2021/03/14 00:43:44;;;;;;;6.95;3.00;;;;;;;6.14;61.19;98449.20;147829;1144;104588;-73
2021/03/14 00:46:47;;;;;;;16.07;8.13;;;;;;;6.19;61.18;98455.64;147788;1143;104505;-73
2021/03/14 00:49:51;;;;;;;8.03;3.65;;;;;;;6.22;61.25;98455.31;147711;1144;104670;-75
2021/03/14 00:52:55;;;;;;;35.80;17.85;;;;;;;6.24;61.53;98452.51;147692;1144;104695;-72
2021/03/14 00:55:59;;;;;;;17.67;8.70;;;;;;;6.21;61.17;98453.66;147691;1143;104473;-75
2021/03/14 00:59:03;;;;;;;15.30;8.15;;;;;;;6.19;60.54;98447.70;147816;1144;104561;-76
2021/03/14 01:02:06;;;;;;;8.83;4.30;;;;;;;6.15;61.47;98445.57;147777;1144;104531;-75
2021/03/14 01:05:12;;;;;;;12.35;6.47;;;;;;;6.11;60.77;98458.32;147798;1144;104550;-75
2021/03/14 01:08:18;;;;;;;9.08;4.70;;;;;;;6.06;60.51;98450.05;147813;1143;105173;-72
2021/03/14 01:11:22;;;;;;;18.77;9.25;;;;;;;6.02;61.14;98443.44;147839;1144;104535;-73
2021/03/14 01:14:36;;;;;;;27.30;12.98;;;;;;;5.97;61.10;98448.43;147742;1144;104541;-75
2021/03/14 01:17:47;;;;;;;10.80;5.00;;;;;;;5.90;61.52;98449.05;147779;1144;104473;-73
2021/03/14 01:20:50;;;;;;;15.88;7.53;;;;;;;5.84;61.64;98439.13;147835;1144;104547;-73
2021/03/14 01:23:53;;;;;;;22.60;12.18;;;;;;;5.78;61.72;98431.87;147834;1143;104546;-76
2021/03/14 01:26:57;;;;;;;19.62;10.40;;;;;;;5.73;61.45;98423.59;147853;1144;104485;-70
2021/03/14 01:30:00;;;;;;;18.45;9.73;;;;;;;5.67;61.68;98429.56;147785;1144;104519;-73
2021/03/14 01:33:04;;;;;;;14.40;7.37;;;;;;;5.63;61.75;98429.06;147642;1144;104886;-76
2021/03/14 01:36:08;;;;;;;87.27;40.40;;;;;;;5.64;61.56;98419.30;147776;1144;104543;-73
2021/03/14 01:39:11;;;;;;;34.27;16.85;;;;;;;5.68;61.45;98418.00;147888;1143;104492;-74
2021/03/14 01:42:15;;;;;;;23.25;11.08;;;;;;;5.73;62.11;98417.48;147850;1144;104460;-75
2021/03/14 01:45:19;;;;;;;18.17;8.03;;;;;;;5.76;61.62;98422.45;147827;1144;104543;-77
2021/03/14 01:48:27;;;;;;;54.40;25.43;;;;;;;5.76;61.59;98423.27;147790;1143;104603;-75
2021/03/14 01:51:31;;;;;;;18.70;9.18;;;;;;;5.76;61.32;98412.69;147830;1144;104841;-75
2021/03/14 01:54:35;;;;;;;9.48;4.47;;;;;;;5.72;61.60;98400.79;147846;1144;104540;-75
2021/03/14 01:57:39;;;;;;;50.60;22.97;;;;;;;5.67;61.58;98397.80;147859;1144;104487;-72
2021/03/14 02:00:42;;;;;;;22.57;10.37;;;;;;;5.64;61.08;98387.55;147685;1143;104601;-72
2021/03/14 02:03:45;;;;;;;18.53;8.63;;;;;;;5.61;61.66;98394.01;147695;1143;104656;-75
2021/03/14 02:06:48;;;;;;;82.65;37.48;;;;;;;5.57;61.17;98400.63;147653;1144;104470;-72
2021/03/14 02:09:52;;;;;;;24.67;10.60;;;;;;;5.50;61.00;98402.28;147493;1143;104542;-74
2021/03/14 02:12:59;;;;;;;99.20;44.20;;;;;;;5.44;61.63;98398.48;147770;1143;104563;-71
2021/03/14 02:16:09;;;;;;;151.97;62.10;;;;;;;5.42;61.35;98389.88;147754;1144;104538;-72
2021/03/14 02:19:20;;;;;;;142.65;49.95;;;;;;;5.37;61.49;98394.02;147874;1144;104905;-75
2021/03/14 02:22:24;;;;;;;230.33;91.93;;;;;;;5.35;61.25;98388.07;147786;1144;104451;-78
2021/03/14 02:25:35;;;;;;;122.60;50.30;;;;;;;5.29;61.33;98394.84;147721;1144;104492;-77
2021/03/14 02:28:39;;;;;;;287.88;122.20;;;;;;;5.26;61.54;98401.30;147885;1143;104454;-79
2021/03/14 02:31:43;;;;;;;81.08;32.48;;;;;;;5.23;61.39;98398.97;147868;1142;104889;-75
2021/03/14 02:34:51;;;;;;;84.83;34.20;;;;;;;5.20;61.69;98396.67;147713;1145;104604;-76
2021/03/14 02:37:55;;;;;;;52.57;20.93;;;;;;;5.23;61.96;98403.44;147833;1144;104480;-76
2021/03/14 02:41:00;;;;;;;75.35;30.72;;;;;;;5.30;62.02;98402.62;147865;1144;104444;-77
2021/03/14 02:44:04;;;;;;;49.10;21.62;;;;;;;5.40;61.56;98407.73;147825;1143;104537;-75
2021/03/14 02:47:08;;;;;;;80.07;33.05;;;;;;;5.46;61.58;98407.07;147637;1143;104566;-79
2021/03/14 02:50:16;;;;;;;45.80;21.80;;;;;;;5.51;61.92;98411.88;147706;1144;104564;-78
2021/03/14 02:53:22;;;;;;;72.97;38.57;;;;;;;5.50;61.15;98412.86;147724;1144;104486;-77
2021/03/14 02:56:25;;;;;;;50.58;26.05;;;;;;;5.51;61.79;98415.34;147784;1143;104543;-77
2021/03/14 02:59:29;;;;;;;26.62;13.93;;;;;;;5.48;61.95;98420.14;147821;1143;104459;-79
2021/03/14 03:02:32;;;;;;;38.37;19.20;;;;;;;5.47;61.34;98424.61;147752;1144;104716;-78
2021/03/14 03:05:35;;;;;;;46.18;19.75;;;;;;;5.45;61.27;98429.24;147794;1144;104560;-77
2021/03/14 03:08:40;;;;;;;22.37;12.13;;;;;;;5.45;61.55;98429.24;147845;1143;104541;-81
2021/03/14 03:11:44;;;;;;;16.20;9.13;;;;;;;5.44;61.79;98432.05;147834;1143;104546;-77
2021/03/14 03:14:49;;;;;;;19.10;9.80;;;;;;;5.39;61.78;98432.55;147752;1143;104530;-74
2021/03/14 03:17:53;;;;;;;31.42;23.60;;;;;;;5.37;61.86;98444.27;147859;1144;104627;-74
2021/03/14 03:20:57;;;;;;;29.27;16.17;;;;;;;5.34;61.57;98450.72;147895;1144;104856;-76
2021/03/14 03:24:01;;;;;;;102.17;55.92;;;;;;;5.29;61.67;98453.02;147750;1144;104472;-77
2021/03/14 03:27:05;;;;;;;40.10;20.00;;;;;;;5.26;61.91;98450.72;147748;1144;104581;-78
2021/03/14 03:30:12;;;;;;;22.37;10.63;;;;;;;5.23;61.60;98458.97;147848;1143;104487;-77
2021/03/14 03:33:15;;;;;;;26.48;14.73;;;;;;;5.18;62.13;98466.58;147754;1144;104592;-75
2021/03/14 03:36:18;;;;;;;15.98;9.28;;;;;;;5.15;62.07;98467.72;147735;1144;104463;-76
2021/03/14 03:39:21;;;;;;;29.02;16.95;;;;;;;5.13;61.26;98463.59;147804;1144;104552;-75
2021/03/14 03:42:29;;;;;;;19.95;10.80;;;;;;;5.08;61.69;98453.48;147699;1144;104498;-79
2021/03/14 03:45:36;;;;;;;17.55;9.83;;;;;;;5.11;62.43;98466.39;147700;1144;104466;-77
2021/03/14 03:48:44;;;;;;;19.27;12.03;;;;;;;5.15;62.08;98458.97;147752;1144;104950;-76
2021/03/14 03:51:47;;;;;;;14.63;9.37;;;;;;;5.21;61.58;98447.73;147829;1143;104535;-82
2021/03/14 03:54:52;;;;;;;9.47;5.73;;;;;;;5.24;62.07;98455.34;147762;1144;104546;-79
2021/03/14 03:57:57;;;;;;;7.33;4.25;;;;;;;5.25;62.07;98456.98;147898;1144;104543;-79
2021/03/14 04:01:02;;;;;;;11.93;7.60;;;;;;;5.25;62.30;98449.05;147837;1144;104445;-77
2021/03/14 04:04:07;;;;;;;20.27;9.95;;;;;;;5.25;61.98;98441.97;147816;1144;104645;-77
2021/03/14 04:07:11;;;;;;;5.28;3.30;;;;;;;5.21;61.83;98440.62;147888;1143;104451;-77
2021/03/14 04:10:17;;;;;;;8.65;4.78;;;;;;;5.17;62.03;98422.61;147888;1143;104476;-82
2021/03/14 04:13:22;;;;;;;8.90;4.90;;;;;;;5.11;61.71;98430.20;147837;1145;104526;-79
2021/03/14 04:16:26;;;;;;;5.05;2.90;;;;;;;5.05;62.39;98441.42;147861;1144;104488;-77
2021/03/14 04:19:32;;;;;;;5.27;2.60;;;;;;;5.01;62.16;98448.03;147742;1144;104470;-80
2021/03/14 04:22:36;;;;;;;4.83;2.40;;;;;;;4.94;62.33;98438.27;147674;1144;104588;-78
2021/03/14 04:25:40;;;;;;;7.05;3.65;;;;;;;4.89;62.35;98441.41;147829;1144;104458;-78
2021/03/14 04:28:46;;;;;;;9.17;5.40;;;;;;;4.83;61.97;98445.52;147837;1144;104452;-78
2021/03/14 04:31:51;;;;;;;33.08;14.90;;;;;;;4.76;62.33;98441.86;147856;1143;104901;-76
2021/03/14 04:34:55;;;;;;;70.75;27.50;;;;;;;4.71;62.71;98450.28;147868;1144;104633;-79
2021/03/14 04:37:59;;;;;;;27.05;10.35;;;;;;;4.67;62.35;98437.53;147905;1144;104590;-80
2021/03/14 04:41:04;;;;;;;14.07;6.28;;;;;;;4.62;62.56;98435.38;147814;1144;104992;-79
2021/03/14 04:44:10;;;;;;;8.85;4.15;;;;;;;4.60;63.21;98442.64;147898;1144;104543;-81
2021/03/14 04:47:13;;;;;;;55.37;22.97;;;;;;;4.61;62.60;98443.45;147852;1144;104474;-78
2021/03/14 04:50:19;;;;;;;210.97;78.90;;;;;;;4.67;62.31;98434.88;147809;1142;104665;-82
2021/03/14 04:53:25;;;;;;;26.73;11.50;;;;;;;4.74;62.75;98437.73;147844;1143;104588;-79
2021/03/14 04:56:30;;;;;;;14.38;6.55;;;;;;;4.78;62.75;98439.88;147822;1144;104518;-79
2021/03/14 04:59:37;;;;;;;10.35;5.28;;;;;;;4.83;62.54;98444.67;147703;1144;104473;-80
2021/03/14 05:02:42;;;;;;;9.90;5.10;;;;;;;4.86;62.61;98441.72;147807;1144;104528;-76
2021/03/14 05:05:47;;;;;;;6.53;3.92;;;;;;;4.84;62.90;98441.05;147858;1145;104604;-78
2021/03/14 05:08:51;;;;;;;5.37;3.23;;;;;;;4.83;62.62;98439.38;147906;1144;104544;-81
2021/03/14 05:11:55;;;;;;;6.00;3.67;;;;;;;4.81;62.56;98430.80;147905;1144;104470;-80
2021/03/14 05:14:58;;;;;;;6.35;4.05;;;;;;;4.77;62.57;98429.47;147834;1145;104476;-76
2021/03/14 05:18:03;;;;;;;4.78;3.00;;;;;;;4.78;62.69;98433.78;147843;1143;104444;-75
2021/03/14 05:21:07;;;;;;;5.85;3.17;;;;;;;4.75;62.66;98429.62;147892;1143;104943;-76
2021/03/14 05:24:13;;;;;;;4.95;2.80;;;;;;;4.74;62.77;98427.98;147879;1145;104654;-77
2021/03/14 05:27:17;;;;;;;5.17;2.77;;;;;;;4.71;62.95;98426.50;147868;1145;104543;-82
2021/03/14 05:30:25;;;;;;;5.55;2.65;;;;;;;4.71;62.86;98434.42;147847;1143;104512;-79
2021/03/14 05:33:28;;;;;;;5.78;2.45;;;;;;;4.70;63.42;98431.94;147839;1144;104484;-80
2021/03/14 05:36:32;;;;;;;4.85;3.30;;;;;;;4.69;62.63;98433.73;147725;1144;104471;-77
2021/03/14 05:39:35;;;;;;;4.33;2.40;;;;;;;4.69;62.78;98436.37;147722;1143;104908;-76
2021/03/14 05:42:39;;;;;;;5.87;3.02;;;;;;;4.68;63.04;98424.16;147851;1143;104558;-78
2021/03/14 05:45:43;;;;;;;7.57;3.73;;;;;;;4.75;63.45;98426.16;147821;1144;104956;-78
2021/03/14 05:48:47;;;;;;;6.40;3.33;;;;;;;4.82;62.58;98432.46;147796;1144;104508;-79
2021/03/14 05:51:53;;;;;;;4.75;2.90;;;;;;;4.91;63.09;98429.67;147817;1143;104500;-77
2021/03/14 05:54:56;;;;;;;6.53;3.47;;;;;;;4.99;62.90;98428.86;147868;1143;104543;-79
2021/03/14 05:58:01;;;;;;;6.75;3.70;;;;;;;5.08;62.71;98427.05;147861;1144;104467;-79
2021/03/14 06:01:08;;;;;;;5.92;2.80;;;;;;;5.14;62.77;98426.42;147844;1144;104486;-77
2021/03/14 06:04:13;;;;;;;18.87;9.68;;;;;;;5.15;62.86;98429.88;147823;1143;104895;-77
2021/03/14 06:07:16;;;;;;;17.10;7.87;;;;;;;5.19;62.88;98433.84;147820;1144;104515;-76
2021/03/14 06:10:20;;;;;;;69.00;29.97;;;;;;;5.22;63.16;98431.70;147799;1144;104476;-77
2021/03/14 06:13:24;;;;;;;19.50;9.33;;;;;;;5.24;63.08;98424.44;147841;1144;104556;-76
2021/03/14 06:16:27;;;;;;;69.17;29.00;;;;;;;5.27;62.96;98429.41;147638;1144;104503;-75
2021/03/14 06:19:30;;;;;;;41.63;17.62;;;;;;;5.30;62.66;98444.93;147698;1144;104489;-75
2021/03/14 06:22:33;;;;;;;19.15;8.60;;;;;;;5.36;63.13;98454.03;147810;1144;104595;-78
2021/03/14 06:25:38;;;;;;;40.87;17.30;;;;;;;5.37;63.00;98460.13;147834;1144;104918;-80
2021/03/14 06:28:41;;;;;;;18.42;8.60;;;;;;;5.39;62.66;98459.00;147903;1143;104432;-78
2021/03/14 06:31:46;;;;;;;28.47;11.78;;;;;;;5.41;63.04;98462.31;147737;1143;104480;-82
2021/03/14 06:34:49;;;;;;;84.47;29.10;;;;;;;5.42;63.32;98466.59;147822;1144;104476;-77
2021/03/14 06:37:52;;;;;;;41.48;15.88;;;;;;;5.46;63.19;98470.55;147788;1144;104585;-80
2021/03/14 06:41:12;;;;;;;13.72;5.42;;;;;;;5.48;63.25;98457.17;147747;1144;104538;-74
2021/03/14 06:44:24;;;;;;;114.32;39.00;;;;;;;5.56;62.45;98453.70;147814;1144;104447;-79
2021/03/14 06:47:42;;;;;;;76.50;29.13;;;;;;;5.67;62.34;98451.55;147819;1145;104453;-81
2021/03/14 06:50:45;;;;;;;49.67;19.48;;;;;;;5.83;63.17;98460.47;147826;1144;104570;-77
2021/03/14 06:53:48;;;;;;;38.33;15.72;;;;;;;5.93;62.77;98447.91;147691;1144;104516;-75
2021/03/14 06:57:07;;;;;;;25.68;9.50;;;;;;;6.02;62.76;98446.08;147763;1143;104467;-77
2021/03/14 07:00:20;;;;;;;40.33;15.20;;;;;;;6.08;63.14;98448.05;147783;1144;104457;-78
2021/03/14 07:03:26;;;;;;;83.22;33.55;;;;;;;6.12;62.38;98459.14;147797;1144;104547;-75
2021/03/14 07:06:29;;;;;;;31.37;13.03;;;;;;;6.16;61.83;98461.30;147995;1143;104439;-72
2021/03/14 07:09:33;;;;;;;40.83;17.85;;;;;;;6.18;62.16;98454.01;147849;1143;104554;-71
2021/03/14 07:12:38;;;;;;;16.40;6.90;;;;;;;6.22;61.75;98462.45;147962;1142;104451;-72
2021/03/14 07:15:50;;;;;;;60.52;26.77;;;;;;;6.27;62.24;98460.95;147824;1143;104463;-72
2021/03/14 07:18:53;;;;;;;19.32;8.68;;;;;;;6.31;61.64;98469.35;147645;1143;104441;-72
2021/03/14 07:22:02;;;;;;;29.48;13.68;;;;;;;6.36;62.30;98477.63;147882;1144;104551;-68
2021/03/14 07:25:20;;;;;;;24.65;11.83;;;;;;;6.41;61.52;98483.25;147666;1144;104576;-67
2021/03/14 07:28:24;;;;;;;8.85;4.55;;;;;;;6.45;61.16;98486.39;147617;1143;104941;-67
2021/03/14 07:31:28;;;;;;;13.50;5.97;;;;;;;6.51;61.84;98490.19;147611;1143;104550;-68
2021/03/14 07:34:32;;;;;;;31.55;16.87;;;;;;;6.58;61.61;98497.28;147513;1144;104460;-67
2021/03/14 07:37:39;;;;;;;26.12;14.13;;;;;;;6.63;60.60;98497.58;147661;1144;104460;-68
2021/03/14 07:40:42;;;;;;;225.18;87.45;;;;;;;6.69;60.06;98480.98;147586;1144;104751;-73
2021/03/14 07:43:46;;;;;;;187.80;70.55;;;;;;;6.74;60.97;98484.97;147863;1144;104535;-73
2021/03/14 07:46:51;;;;;;;344.05;157.25;;;;;;;6.81;59.97;98475.30;147851;1143;104483;-76
2021/03/14 07:49:55;;;;;;;273.37;118.03;;;;;;;6.89;59.52;98467.34;147870;1144;104503;-77
2021/03/14 07:53:04;;;;;;;315.97;146.27;;;;;;;6.95;58.95;98471.94;147877;1144;104543;-73
2021/03/14 07:56:08;;;;;;;79.92;33.53;;;;;;;7.03;59.72;98468.41;147869;1144;104652;-76
2021/03/14 07:59:11;;;;;;;244.35;120.40;;;;;;;7.13;59.68;98473.50;147966;1144;104476;-75
2021/03/14 08:02:31;;;;;;;257.50;134.00;;;;;;;7.20;59.11;98466.50;147854;1144;104535;-73
2021/03/14 08:05:48;;;;;;;130.13;50.90;;;;;;;7.28;58.28;98466.44;147885;1143;104441;-72
2021/03/14 08:08:52;;;;;;;55.78;23.57;;;;;;;7.34;58.61;98448.99;147850;1144;104485;-81
2021/03/14 08:12:14;;;;;;;126.65;67.25;;;;;;;7.40;58.17;98456.23;147758;1143;104454;-77
2021/03/14 08:15:23;;;;;;;56.68;26.10;;;;;;;7.50;58.25;98456.00;147748;1142;104504;-75
2021/03/14 08:18:39;;;;;;;85.50;36.23;;;;;;;7.55;55.33;98451.00;147829;1144;104874;-79
2021/03/14 08:21:42;;;;;;;82.25;38.80;;;;;;;7.61;58.39;98448.44;147889;1143;104437;-73
2021/03/14 08:24:47;;;;;;;54.90;23.97;;;;;;;7.71;56.51;98471.27;147898;1144;104516;-74
2021/03/14 08:27:52;;;;;;;80.92;32.73;;;;;;;7.75;54.89;98483.17;147855;1144;104645;-75
2021/03/14 08:30:55;;;;;;;43.40;19.75;;;;;;;7.82;56.86;98487.59;147897;1144;104631;-76
2021/03/14 08:33:58;;;;;;;35.40;17.45;;;;;;;7.92;56.34;98499.80;147832;1143;104633;-72
2021/03/14 08:37:22;;;;;;;113.27;35.33;;;;;;;7.99;54.02;98501.56;147808;1143;104503;-74
2021/03/14 08:40:33;;;;;;;157.47;50.03;;;;;;;8.05;55.08;98505.33;147891;1144;104468;-73
2021/03/14 08:43:44;;;;;;;89.87;24.27;;;;;;;8.15;55.03;98505.89;147909;1144;104485;-76
2021/03/14 08:47:09;;;;;;;67.72;26.42;;;;;;;8.22;55.57;98516.64;147881;1144;104965;-76
2021/03/14 08:50:18;;;;;;;82.65;29.65;;;;;;;8.29;53.86;98516.73;147884;1143;104504;-77
2021/03/14 08:53:32;;;;;;;72.78;30.82;;;;;;;8.35;54.22;98508.88;147825;1143;104601;-74
2021/03/14 08:56:45;;;;;;;39.80;16.17;;;;;;;8.43;55.10;98534.58;147922;1144;104455;-78
2021/03/14 08:59:51;;;;;;;27.83;11.73;;;;;;;8.52;53.41;98546.75;147789;1143;104636;-76
2021/03/14 09:02:54;;;;;;;44.63;21.25;;;;;;;8.61;52.50;98542.19;147887;1143;104540;-70
2021/03/14 09:06:26;;;;;;;132.32;55.25;;;;;;;8.75;54.66;98549.33;147672;1143;104465;-72
2021/03/14 09:09:30;;;;;;;25.90;9.63;;;;;;;8.93;52.20;98551.64;147705;1144;104599;-71
2021/03/14 09:13:00;;;;;;;174.57;80.37;;;;;;;9.06;52.77;98566.92;147788;1144;104487;-72
2021/03/14 09:16:42;;;;;;;278.83;122.75;;;;;;;9.38;54.10;98556.89;147636;1143;104483;-69
2021/03/14 09:19:48;;;;;;;;;;;;;;;9.64;52.47;98572.31;147697;1144;104468;-73
2021/03/14 09:22:51;;;;;;;71.20;35.83;;;;;;;9.71;52.00;98565.23;147754;1144;104562;-70
2021/03/14 09:26:07;;;;;;;36.73;20.97;;;;;;;9.79;50.87;98575.76;147647;1142;104531;-70
2021/03/14 09:29:11;;;;;;;35.23;23.05;;;;;;;9.85;52.55;98587.50;147745;1143;104546;-74
2021/03/14 09:32:29;;;;;;;37.73;17.45;;;;;;;10.01;50.25;98581.12;147831;1143;104556;-73
2021/03/14 09:35:33;;;;;;;20.37;11.33;;;;;;;10.31;51.74;98581.80;147925;1143;104540;-73
2021/03/14 09:38:44;;;;;;;11.87;7.77;;;;;;;10.65;51.99;98560.73;147781;1144;104543;-72
2021/03/14 09:41:58;;;;;;;32.88;20.37;;;;;;;10.80;48.87;98574.79;147799;1144;104440;-71
2021/03/14 09:45:22;;;;;;;10.87;6.23;;;;;;;10.91;51.55;98560.91;147726;1142;104627;-70
2021/03/14 09:48:28;;;;;;;38.65;25.68;;;;;;;11.10;51.95;98567.34;147697;1143;104633;-72
2021/03/14 09:51:32;;;;;;;15.27;10.43;;;;;;;11.14;48.98;98565.10;147736;1143;104483;-75
2021/03/14 09:54:36;;;;;;;18.07;10.97;;;;;;;11.11;48.43;98592.21;147831;1144;104469;-70
2021/03/14 09:57:43;;;;;;;18.60;11.97;;;;;;;11.04;49.39;98569.98;147628;1144;104440;-73
2021/03/14 10:00:54;;;;;;;10.13;6.42;;;;;;;11.04;50.51;98580.66;147641;1144;104528;-69
2021/03/14 10:04:00;;;;;;;11.00;7.90;;;;;;;10.99;49.26;98583.94;147710;1142;104624;-77
2021/03/14 10:07:28;;;;;;;12.85;7.03;;;;;;;10.87;49.07;98606.84;147813;1144;104988;-71
2021/03/14 10:10:37;;;;;;;8.63;6.22;;;;;;;10.93;49.89;98606.05;147849;1144;104463;-72
2021/03/14 10:13:44;;;;;;;12.15;5.85;;;;;;;10.86;48.44;98621.21;147684;1144;104513;-73
2021/03/14 10:16:49;;;;;;;59.25;29.05;;;;;;;10.79;49.30;98631.83;147980;1144;104473;-75
2021/03/14 10:19:53;;;;;;;105.93;43.67;;;;;;;10.68;49.48;98613.67;148416;1143;104620;-73
2021/03/14 10:23:04;;;;;;;58.30;29.72;;;;;;;10.51;48.33;98621.16;147787;1144;104470;-75
2021/03/14 10:26:15;;;;;;;80.20;33.20;;;;;;;10.30;48.59;98628.16;147867;1144;104543;-70
2021/03/14 10:29:33;;;;;;;60.60;27.30;;;;;;;10.25;50.16;98641.19;147605;1143;104495;-72
2021/03/14 10:32:48;;;;;;;47.33;24.15;;;;;;;10.16;48.33;98634.33;147685;1144;104918;-69
2021/03/14 10:36:03;;;;;;;68.37;38.20;;;;;;;10.06;49.79;98631.98;147682;1144;104485;-72
2021/03/14 10:39:08;;;;;;;30.62;15.05;;;;;;;9.91;49.10;98652.52;147911;1143;104480;-72
2021/03/14 10:42:32;;;;;;;31.77;17.27;;;;;;;9.72;49.38;98648.62;147730;1144;104461;-73
2021/03/14 10:45:46;;;;;;;25.90;14.58;;;;;;;9.60;48.20;98648.27;147923;1143;104582;-72
2021/03/14 10:49:00;;;;;;;36.83;22.75;;;;;;;9.57;49.95;98657.47;147879;1144;104460;-78
2021/03/14 10:52:04;;;;;;;20.40;11.95;;;;;;;9.65;48.62;98656.55;147856;1143;104614;-71
2021/03/14 10:55:30;;;;;;;14.75;8.43;;;;;;;9.65;49.13;98653.88;147866;1142;104469;-72
2021/03/14 10:58:40;;;;;;;21.43;14.40;;;;;;;9.58;49.53;98671.60;147828;1144;104496;-74
2021/03/14 11:01:55;;;;;;;11.38;7.70;;;;;;;9.46;49.00;98659.78;147662;1144;104959;-71
2021/03/14 11:04:59;;;;;;;104.80;57.37;;;;;;;9.37;50.07;98670.54;147715;1144;104508;-74
2021/03/14 11:08:08;;;;;;;18.73;10.32;;;;;;;9.27;49.72;98677.95;147837;1144;104512;-70
2021/03/14 11:11:39;;;;;;;23.20;14.07;;;;;;;9.21;50.14;98682.17;147931;1144;104479;-81
2021/03/14 11:14:47;;;;;;;14.47;10.08;;;;;;;9.29;50.99;98675.94;147910;1143;104822;-71
2021/03/14 11:18:23;;;;;;;62.03;34.65;;;;;;;9.37;50.55;98675.86;147631;1144;105079;-71
2021/03/14 11:21:49;;;;;;;62.20;35.97;;;;;;;9.50;50.63;98671.71;147858;1144;104497;-71
2021/03/14 11:24:53;;;;;;;64.00;30.20;;;;;;;9.56;49.88;98668.30;147656;1144;104562;-74
2021/03/14 11:27:59;;;;;;;55.10;26.65;;;;;;;9.48;50.47;98677.22;147822;1143;104463;-72
2021/03/14 11:31:03;;;;;;;92.25;36.63;;;;;;;9.54;49.98;98678.31;147825;1143;104805;-69
2021/03/14 11:34:07;;;;;;;27.48;12.05;;;;;;;9.66;49.44;98690.16;147684;1144;104535;-74
2021/03/14 11:37:17;;;;;;;76.90;34.93;;;;;;;9.65;49.79;98674.36;147822;1144;104897;-70
2021/03/14 11:40:45;;;;;;;64.92;30.57;;;;;;;9.66;49.78;98674.19;147648;1144;104614;-72
2021/03/14 11:44:08;;;;;;;19.03;9.67;;;;;;;9.83;50.14;98666.78;147802;1143;104541;-71
2021/03/14 11:47:11;;;;;;;34.23;18.30;;;;;;;9.85;50.16;98671.92;147674;1144;104448;-77
2021/03/14 11:50:40;;;;;;;42.20;22.93;;;;;;;9.99;49.52;98668.41;147849;1144;105355;-69
2021/03/14 11:53:45;;;;;;;79.95;40.98;;;;;;;10.18;50.43;98666.95;147745;1144;104911;-71
2021/03/14 11:56:50;;;;;;;33.75;17.45;;;;;;;10.30;49.15;98675.30;147666;1144;104553;-68
2021/03/14 11:59:57;;;;;;;83.70;44.80;;;;;;;10.41;48.42;98690.79;147725;1144;104505;-70
2021/03/14 12:03:00;;;;;;;97.80;52.23;;;;;;;10.41;47.98;98720.13;147728;1143;104544;-70
2021/03/14 12:06:12;;;;;;;34.58;20.45;;;;;;;10.31;48.09;98690.29;147802;1143;104470;-73
2021/03/14 12:09:24;;;;;;;21.93;14.18;;;;;;;10.22;48.47;98690.39;147656;1143;104528;-68
2021/03/14 12:12:28;;;;;;;55.63;36.00;;;;;;;10.26;49.54;98682.84;147688;1143;104921;-72
2021/03/14 12:15:37;;;;;;;22.17;13.88;;;;;;;10.32;48.69;98689.29;147893;1144;104476;-69
2021/03/14 12:18:41;;;;;;;27.37;17.23;;;;;;;10.23;48.38;98704.53;147648;1144;104441;-72
2021/03/14 12:21:44;;;;;;;11.20;6.78;;;;;;;10.02;48.87;98705.33;147737;1144;104524;-74
2021/03/14 12:24:47;;;;;;;8.55;6.33;;;;;;;9.89;49.43;98702.50;147890;1144;104536;-72
2021/03/14 12:27:52;;;;;;;132.63;65.40;;;;;;;9.76;49.16;98700.53;147826;1144;104643;-71
2021/03/14 12:30:55;;;;;;;362.32;187.40;;;;;;;9.61;50.10;98705.86;147738;1142;104505;-70
2021/03/14 12:33:59;;;;;;;222.00;108.90;;;;;;;9.47;50.08;98696.88;147752;1143;104532;-70
2021/03/14 12:37:02;;;;;;;126.25;59.10;;;;;;;9.33;49.94;98700.35;147659;1143;104532;-73
2021/03/14 12:40:12;;;;;;;117.93;50.28;;;;;;;9.12;50.53;98703.73;147920;1144;104420;-73
2021/03/14 12:43:17;;;;;;;144.87;63.17;;;;;;;8.96;50.38;98736.64;147843;1144;104528;-71
2021/03/14 12:46:22;;;;;;;43.93;19.30;;;;;;;8.72;52.77;98758.94;147703;1144;104444;-71
2021/03/14 12:49:26;;;;;;;63.45;26.90;;;;;;;8.32;52.95;98756.37;147691;1144;104452;-70
2021/03/14 12:52:29;;;;;;;59.53;27.87;;;;;;;8.17;53.40;98764.25;147710;1144;104472;-69
2021/03/14 12:55:33;;;;;;;58.90;26.37;;;;;;;7.93;53.35;98751.94;147646;1144;104458;-72
2021/03/14 12:58:37;;;;;;;130.45;46.88;;;;;;;7.83;53.61;98756.60;147729;1143;105227;-73
2021/03/14 13:01:41;;;;;;;129.93;46.80;;;;;;;7.94;54.03;98750.09;147666;1144;104547;-71
2021/03/14 13:04:44;;;;;;;220.00;86.67;;;;;;;8.09;53.88;98745.70;147698;1143;104441;-72
2021/03/14 13:07:48;;;;;;;91.53;37.95;;;;;;;8.23;54.30;98752.09;147645;1144;104464;-71
2021/03/14 13:10:51;;;;;;;129.65;55.78;;;;;;;8.32;53.70;98755.55;147730;1144;104589;-76
2021/03/14 13:13:54;;;;;;;102.75;53.95;;;;;;;8.29;53.79;98761.20;147791;1142;104892;-72
2021/03/14 13:16:57;;;;;;;71.20;39.07;;;;;;;8.31;53.58;98753.88;147684;1144;104519;-74
2021/03/14 13:20:01;;;;;;;84.80;53.50;;;;;;;8.38;53.62;98754.84;147696;1143;104509;-73
2021/03/14 13:23:04;;;;;;;52.78;35.45;;;;;;;8.56;54.07;98763.38;147810;1143;104537;-72
2021/03/14 13:26:08;;;;;;;31.33;19.23;;;;;;;8.68;53.30;98768.28;147577;1143;104566;-71
2021/03/14 13:29:11;;;;;;;53.20;37.35;;;;;;;8.75;53.30;98767.39;147606;1144;104557;-74
2021/03/14 13:32:15;;;;;;;33.67;24.18;;;;;;;8.74;53.73;98773.73;147686;1144;104549;-70
2021/03/14 13:35:19;;;;;;;23.57;12.15;;;;;;;8.73;53.46;98771.25;147644;1143;104583;-68
2021/03/14 13:38:23;;;;;;;16.77;9.63;;;;;;;8.73;53.77;98789.86;147645;1144;104652;-71
2021/03/14 13:41:26;;;;;;;9.53;5.97;;;;;;;8.56;53.74;98792.62;147885;1144;104500;-72
2021/03/14 13:44:29;;;;;;;11.50;7.00;;;;;;;8.43;55.11;98795.05;147666;1144;104524;-70
2021/03/14 13:47:33;;;;;;;9.73;5.50;;;;;;;8.31;54.80;98813.16;147679;1144;104493;-75
2021/03/14 13:50:36;;;;;;;9.15;5.58;;;;;;;8.04;56.12;98809.14;147680;1143;104492;-70
2021/03/14 13:53:40;;;;;;;9.93;7.40;;;;;;;7.93;56.07;98810.36;147673;1143;104461;-69
2021/03/14 13:56:43;;;;;;;22.23;16.30;;;;;;;7.91;55.80;98806.20;147718;1143;104546;-70
2021/03/14 13:59:46;;;;;;;30.10;18.48;;;;;;;7.97;56.17;98806.36;147639;1144;104655;-70
2021/03/14 14:02:49;;;;;;;53.75;31.15;;;;;;;8.13;55.96;98805.45;147691;1144;104631;-84
2021/03/14 14:05:58;;;;;;;55.08;35.55;;;;;;;8.30;55.48;98808.05;147728;1144;104473;-69
2021/03/14 14:09:01;;;;;;;19.42;13.22;;;;;;;8.36;54.81;98792.22;147649;1144;104547;-72
2021/03/14 14:12:06;;;;;;;10.43;7.55;;;;;;;8.36;56.09;98805.50;147694;1144;104595;-71